Terminal Aerodrome Forecast
Issued by NWS

Home | Current Version | Previous Version | Text Only | Print | Product List | Glossary On
Versions: 1 2 3 4 5 6 7 8 9 10 11 12 13 14 15 16 17 18 19 20 21
526
FTUS43 KJKL 240540
TAFSME
TAF
KSME 240540Z 2406/2506 VRB03KT P6SM -SHRA OVC060
     FM240800 11005KT 5SM -SHRA OVC035
     FM241400 30007KT 4SM -SHRA BR OVC015
     FM241900 VRB05KT 5SM -SHRA BR VCTS OVC015CB
     FM242300 VRB05KT 4SM BR VCSH OVC015
     FM250400 VRB03KT 3SM BR VCSH OVC007=

USA.gov is the U.S. government's official web portal to all federal, state and local government web resources and services.